createdAt,value
2023-11-25T00:02:11.824Z,65.63
2023-11-25T00:04:39.934Z,65.64
2023-11-25T00:07:07.925Z,65.43
2023-11-25T00:09:35.800Z,65.34
2023-11-25T00:12:03.923Z,65.28
2023-11-25T00:14:31.898Z,65.06
2023-11-25T00:16:59.784Z,65.10
2023-11-25T00:19:27.791Z,65.14
2023-11-25T00:21:55.827Z,65.25
2023-11-25T00:24:23.761Z,65.20
2023-11-25T00:26:51.669Z,65.14
2023-11-25T00:29:19.737Z,64.98
2023-11-25T00:31:56.026Z,64.83
2023-11-25T00:34:25.639Z,64.84
2023-11-25T00:36:53.667Z,64.76
2023-11-25T00:39:22.037Z,64.85
2023-11-25T00:41:49.911Z,64.79
2023-11-25T00:44:17.816Z,64.80
2023-11-25T00:46:45.966Z,64.78
2023-11-25T00:49:16.345Z,64.80
2023-11-25T00:51:44.256Z,64.90
2023-11-25T00:54:12.157Z,64.88
2023-11-25T00:56:40.368Z,64.87
2023-11-25T00:59:09.282Z,64.93
2023-11-25T01:02:02.486Z,65.03
2023-11-25T01:04:31.728Z,65.15
2023-11-25T01:06:59.644Z,65.03
2023-11-25T01:09:31.836Z,64.82
2023-11-25T01:11:59.788Z,64.89
2023-11-25T01:14:28.596Z,64.89
2023-11-25T01:16:56.575Z,64.90
2023-11-25T01:19:24.985Z,64.85
2023-11-25T01:21:52.897Z,64.97
2023-11-25T01:24:21.529Z,64.96
2023-11-25T01:26:49.865Z,64.85
2023-11-25T01:29:18.707Z,64.85
2023-11-25T01:31:46.654Z,65.05
2023-11-25T01:34:14.632Z,65.08
2023-11-25T01:36:42.663Z,64.98
2023-11-25T01:39:10.561Z,64.85
2023-11-25T01:41:38.415Z,64.96
2023-11-25T01:44:08.737Z,65.00
2023-11-25T01:46:38.812Z,65.05
2023-11-25T01:49:13.782Z,65.50
2023-11-25T01:51:46.180Z,65.63
2023-11-25T01:54:16.499Z,65.72
2023-11-25T01:56:49.711Z,65.73
2023-11-25T01:59:19.559Z,65.81
2023-11-25T02:01:47.776Z,66.00
2023-11-25T02:04:16.039Z,66.13
2023-11-25T02:06:44.031Z,66.26
2023-11-25T02:09:12.932Z,66.42
2023-11-25T02:11:56.132Z,66.58
2023-11-25T02:14:26.421Z,66.77
2023-11-25T02:16:57.037Z,66.99
2023-11-25T02:19:26.084Z,67.13
2023-11-25T02:21:54.966Z,67.10
2023-11-25T02:24:27.917Z,67.08
2023-11-25T02:27:00.486Z,66.96
2023-11-25T02:29:29.420Z,67.02
2023-11-25T02:31:59.946Z,67.00
2023-11-25T02:34:28.667Z,67.19
2023-11-25T02:36:59.145Z,66.98
2023-11-25T02:39:27.110Z,67.19
2023-11-25T02:41:55.521Z,67.34
2023-11-25T02:44:23.644Z,67.32
2023-11-25T02:46:51.665Z,67.27
2023-11-25T02:49:22.568Z,67.55
2023-11-25T02:51:52.542Z,67.48
2023-11-25T02:54:23.261Z,67.46
2023-11-25T02:56:51.516Z,67.63
2023-11-25T02:59:20.085Z,67.67
2023-11-25T03:01:53.641Z,67.74
2023-11-25T03:04:28.235Z,67.83
2023-11-25T03:06:56.932Z,68.03
2023-11-25T03:09:27.120Z,68.11
2023-11-25T03:11:55.102Z,68.16
2023-11-25T03:14:23.705Z,68.35
2023-11-25T03:16:55.936Z,68.47
2023-11-25T03:19:26.805Z,68.49
2023-11-25T03:21:54.686Z,68.62
2023-11-25T03:24:25.449Z,68.71
2023-11-25T03:26:54.164Z,68.68
2023-11-25T03:29:22.455Z,68.59
2023-11-25T03:31:51.709Z,68.73
2023-11-25T03:34:19.698Z,68.59
2023-11-25T03:36:48.300Z,68.60
2023-11-25T03:39:16.637Z,68.67
2023-11-25T03:41:44.654Z,68.80
2023-11-25T03:44:12.650Z,68.82
2023-11-25T03:46:43.383Z,68.86
2023-11-25T03:49:13.640Z,68.85
2023-11-25T03:51:41.608Z,68.79
2023-11-25T03:54:10.167Z,68.79
2023-11-25T03:56:38.079Z,68.92
2023-11-25T03:59:06.112Z,68.90
2023-11-25T04:01:34.174Z,68.84
2023-11-25T04:04:05.064Z,69.02
2023-11-25T04:06:33.305Z,69.05
2023-11-25T04:09:01.289Z,69.17
2023-11-25T04:11:29.344Z,69.22
2023-11-25T04:13:59.153Z,69.27
2023-11-25T04:16:27.124Z,69.27
2023-11-25T04:18:55.365Z,69.42
2023-11-25T04:21:24.318Z,69.39
2023-11-25T04:23:56.967Z,69.27
2023-11-25T04:26:26.114Z,69.31
2023-11-25T04:28:54.162Z,69.43
2023-11-25T04:31:22.257Z,69.56
2023-11-25T04:33:50.174Z,69.56
2023-11-25T04:36:20.037Z,69.53
2023-11-25T04:38:48.276Z,69.64
2023-11-25T04:41:16.303Z,69.61
2023-11-25T04:43:44.893Z,69.71
2023-11-25T04:46:12.966Z,69.75
2023-11-25T04:48:41.908Z,69.89
2023-11-25T04:51:10.621Z,70.06
2023-11-25T04:53:39.029Z,70.07
2023-11-25T04:56:07.186Z,70.10
2023-11-25T04:58:35.073Z,69.95
2023-11-25T05:01:03.161Z,70.07
2023-11-25T05:03:31.129Z,70.07
2023-11-25T05:05:59.084Z,69.96
2023-11-25T05:08:27.089Z,69.97
2023-11-25T05:10:55.067Z,69.87
2023-11-25T05:13:23.036Z,69.82
2023-11-25T05:15:50.977Z,69.86
2023-11-25T05:18:19.002Z,69.72
2023-11-25T05:20:47.018Z,69.58
2023-11-25T05:23:14.870Z,69.48
2023-11-25T05:25:42.835Z,69.43
2023-11-25T05:28:10.763Z,69.44
2023-11-25T05:30:38.741Z,69.54
2023-11-25T05:33:06.708Z,69.54
2023-11-25T05:35:34.608Z,69.53
2023-11-25T05:38:02.625Z,69.57
2023-11-25T05:40:31.171Z,69.62
2023-11-25T05:43:01.947Z,69.63
2023-11-25T05:45:32.110Z,69.71
2023-11-25T05:48:00.311Z,69.74
2023-11-25T05:50:28.594Z,69.75
2023-11-25T05:52:57.635Z,69.65
2023-11-25T05:55:27.867Z,69.47
2023-11-25T05:57:57.601Z,69.35
2023-11-25T06:00:26.768Z,69.07
2023-11-25T06:02:54.683Z,68.97
2023-11-25T06:05:23.233Z,68.80
2023-11-25T06:07:51.506Z,68.65
2023-11-25T06:10:20.233Z,68.40
2023-11-25T06:12:48.505Z,68.22
2023-11-25T06:15:17.128Z,68.30
2023-11-25T06:17:46.693Z,68.38
2023-11-25T06:20:14.710Z,68.50
2023-11-25T06:22:42.764Z,68.71
2023-11-25T06:25:10.910Z,68.77
2023-11-25T06:27:38.910Z,68.80
2023-11-25T06:30:07.425Z,68.66
2023-11-25T06:32:35.366Z,68.64
2023-11-25T06:35:03.791Z,68.51
2023-11-25T06:37:31.848Z,68.40
2023-11-25T06:39:59.810Z,68.16
2023-11-25T06:42:27.838Z,68.14
2023-11-25T06:44:55.838Z,68.28
2023-11-25T06:47:23.968Z,68.28
2023-11-25T06:49:54.909Z,68.20
2023-11-25T06:52:22.781Z,68.06
2023-11-25T06:54:50.942Z,67.66
2023-11-25T06:57:18.848Z,67.35
2023-11-25T06:59:47.162Z,67.32
2023-11-25T07:02:16.104Z,67.31
2023-11-25T07:04:44.492Z,67.36
2023-11-25T07:07:12.909Z,67.06
2023-11-25T07:09:41.919Z,67.11
2023-11-25T07:12:11.574Z,67.07
2023-11-25T07:14:39.871Z,67.10
2023-11-25T07:17:07.798Z,66.96
2023-11-25T07:19:35.834Z,66.79
2023-11-25T07:22:05.065Z,66.60
2023-11-25T07:24:34.115Z,66.66
2023-11-25T07:27:06.405Z,66.55
2023-11-25T07:29:34.702Z,66.45
2023-11-25T07:32:02.749Z,66.43
2023-11-25T07:34:36.221Z,66.45
2023-11-25T07:37:04.832Z,66.50
2023-11-25T07:39:34.605Z,66.46
2023-11-25T07:42:02.995Z,66.37
2023-11-25T07:44:34.163Z,66.32
2023-11-25T07:47:04.975Z,66.32
2023-11-25T07:49:33.130Z,66.30
2023-11-25T07:52:01.454Z,66.28
2023-11-25T07:54:29.598Z,66.36
2023-11-25T07:56:57.781Z,65.39
2023-11-25T07:59:26.793Z,65.05
2023-11-25T08:01:54.873Z,64.99
2023-11-25T08:04:23.782Z,64.15
2023-11-25T08:06:52.006Z,63.97
2023-11-25T08:09:20.012Z,64.51
2023-11-25T08:11:47.888Z,64.33
2023-11-25T08:14:16.003Z,63.34
2023-11-25T08:16:44.450Z,61.47
2023-11-25T08:19:12.508Z,60.24
2023-11-25T08:21:40.401Z,59.94
2023-11-25T08:24:08.820Z,59.66
2023-11-25T08:26:36.798Z,59.81
2023-11-25T08:29:04.751Z,60.44
2023-11-25T08:31:32.888Z,60.72
2023-11-25T08:34:05.681Z,60.74
2023-11-25T08:36:33.693Z,61.01
2023-11-25T08:39:02.887Z,61.34
2023-11-25T08:41:31.311Z,61.50
2023-11-25T08:44:00.531Z,61.67
2023-11-25T08:46:28.891Z,61.70
2023-11-25T08:48:57.045Z,61.85
2023-11-25T08:51:25.425Z,62.18
2023-11-25T08:53:55.367Z,62.18
2023-11-25T08:56:28.979Z,62.15
2023-11-25T08:59:06.626Z,62.16
2023-11-25T09:01:40.735Z,62.39
2023-11-25T09:04:09.026Z,61.79
2023-11-25T09:06:40.906Z,61.57
2023-11-25T09:09:09.373Z,61.82
2023-11-25T09:11:38.076Z,61.83
2023-11-25T09:14:07.400Z,61.66
2023-11-25T09:16:35.408Z,61.86
2023-11-25T09:19:04.146Z,61.93
2023-11-25T09:21:32.084Z,61.94
2023-11-25T09:24:00.105Z,61.94
2023-11-25T09:26:28.114Z,61.88
2023-11-25T09:28:56.598Z,61.67
2023-11-25T09:31:24.684Z,61.65
2023-11-25T09:33:52.826Z,62.01
2023-11-25T09:36:23.873Z,62.12
2023-11-25T09:38:52.585Z,60.76
2023-11-25T09:41:20.685Z,58.45
2023-11-25T09:43:49.039Z,57.11
2023-11-25T09:46:18.212Z,55.77
2023-11-25T09:48:47.116Z,55.07
2023-11-25T09:51:22.148Z,55.05
2023-11-25T09:53:57.239Z,55.40
2023-11-25T09:56:25.198Z,55.76
2023-11-25T09:58:54.135Z,55.43
2023-11-25T10:01:24.035Z,53.79
2023-11-25T10:03:56.570Z,52.03
2023-11-25T10:06:26.645Z,48.59
2023-11-25T10:08:54.570Z,48.51
2023-11-25T10:11:24.341Z,48.38
2023-11-25T10:13:52.262Z,48.76
2023-11-25T10:16:29.451Z,49.76
2023-11-25T10:19:00.361Z,50.87
2023-11-25T10:21:28.338Z,51.79
2023-11-25T10:24:07.664Z,52.56
2023-11-25T10:26:38.758Z,53.36
2023-11-25T10:29:07.714Z,53.58
2023-11-25T10:31:35.657Z,53.68
2023-11-25T10:34:04.022Z,53.55
2023-11-25T10:36:32.023Z,53.97
2023-11-25T10:39:03.328Z,54.34
2023-11-25T10:41:32.406Z,53.77
2023-11-25T10:44:02.241Z,52.56
2023-11-25T10:46:39.872Z,51.63
2023-11-25T10:49:13.376Z,51.32
2023-11-25T10:51:45.337Z,51.57
2023-11-25T10:54:16.578Z,52.36
2023-11-25T10:56:45.778Z,52.99
2023-11-25T10:59:16.838Z,53.13
2023-11-25T11:01:45.871Z,53.25
2023-11-25T11:04:28.233Z,53.45
2023-11-25T11:07:02.360Z,53.81
2023-11-25T11:09:34.876Z,53.86
2023-11-25T11:12:13.917Z,53.95
2023-11-25T11:14:52.771Z,54.10
2023-11-25T11:17:34.512Z,54.10
2023-11-25T11:20:03.038Z,54.05
2023-11-25T11:22:32.649Z,54.13
2023-11-25T11:25:21.606Z,53.88
2023-11-25T11:30:57.993Z,53.58
2023-11-25T11:33:26.389Z,53.79
2023-11-25T11:35:54.833Z,53.64
2023-11-25T11:38:25.154Z,53.94
2023-11-25T11:41:08.589Z,54.37
2023-11-25T11:43:36.553Z,54.65
2023-11-25T11:46:05.774Z,54.81
2023-11-25T11:48:34.689Z,55.10
2023-11-25T11:51:02.553Z,54.82
2023-11-25T11:53:30.528Z,54.67
2023-11-25T11:55:59.459Z,53.98
2023-11-25T11:58:28.975Z,53.72
2023-11-25T12:01:03.786Z,53.97
2023-11-25T12:03:33.499Z,54.58
2023-11-25T12:06:01.584Z,55.34
2023-11-25T12:08:32.022Z,55.76
2023-11-25T12:11:00.120Z,55.59
2023-11-25T12:13:32.362Z,55.77
2023-11-25T12:16:01.868Z,55.87
2023-11-25T12:18:37.265Z,55.81
2023-11-25T12:21:06.662Z,56.03
2023-11-25T12:26:08.309Z,56.41
2023-11-25T12:28:46.385Z,56.62
2023-11-25T12:31:14.360Z,56.62
2023-11-25T12:33:42.300Z,56.77
2023-11-25T12:36:10.268Z,56.99
2023-11-25T12:38:38.942Z,56.93
2023-11-25T12:41:13.325Z,57.01
2023-11-25T12:44:05.441Z,57.25
2023-11-25T12:46:33.695Z,57.32
2023-11-25T12:49:18.916Z,57.24
2023-11-25T12:51:46.873Z,56.95
2023-11-25T12:54:15.605Z,57.07
2023-11-25T12:56:50.726Z,56.90
2023-11-25T12:59:29.472Z,56.67
2023-11-25T13:02:09.716Z,56.33
2023-11-25T13:04:48.605Z,56.16
2023-11-25T13:07:31.217Z,56.54
2023-11-25T13:09:59.948Z,56.93
2023-11-25T13:12:32.939Z,57.13
2023-11-25T13:15:01.035Z,57.41
2023-11-25T13:17:29.583Z,57.30
2023-11-25T13:19:59.062Z,57.54
2023-11-25T13:22:27.182Z,57.38
2023-11-25T13:24:55.088Z,57.29
2023-11-25T13:27:23.728Z,57.25
2023-11-25T13:29:51.633Z,57.32
2023-11-25T13:32:19.568Z,57.25
2023-11-25T13:34:47.599Z,56.96
2023-11-25T13:37:15.561Z,56.71
2023-11-25T13:39:45.189Z,56.87
2023-11-25T13:42:13.057Z,56.72
2023-11-25T13:44:40.921Z,56.94
2023-11-25T13:47:08.881Z,57.04
2023-11-25T13:49:36.870Z,57.25
2023-11-25T13:52:07.185Z,57.54
2023-11-25T13:54:35.891Z,57.55
2023-11-25T13:57:03.976Z,57.77
2023-11-25T13:59:32.503Z,58.00
2023-11-25T14:02:03.616Z,58.05
2023-11-25T14:04:33.632Z,58.25
2023-11-25T14:07:01.814Z,58.16
2023-11-25T14:09:29.969Z,58.33
2023-11-25T14:11:58.242Z,58.50
2023-11-25T14:14:26.633Z,58.56
2023-11-25T14:16:56.652Z,58.63
2023-11-25T14:19:24.815Z,58.60
2023-11-25T14:21:53.210Z,58.80
2023-11-25T14:24:22.909Z,59.05
2023-11-25T14:26:50.811Z,59.34
2023-11-25T14:29:18.993Z,59.39
2023-11-25T14:31:47.037Z,59.67
2023-11-25T14:34:15.756Z,59.63
2023-11-25T14:36:44.936Z,59.67
2023-11-25T14:39:19.649Z,59.79
2023-11-25T14:41:49.345Z,60.01
2023-11-25T14:44:17.478Z,60.03
2023-11-25T14:46:51.702Z,60.04
2023-11-25T14:49:19.717Z,60.35
2023-11-25T14:51:47.606Z,60.48
2023-11-25T14:54:15.673Z,60.58
2023-11-25T14:56:45.152Z,60.70
2023-11-25T14:59:16.018Z,60.90
2023-11-25T15:01:44.072Z,61.00
2023-11-25T15:04:12.154Z,60.91
2023-11-25T15:06:42.514Z,60.95
2023-11-25T15:09:13.189Z,61.16
2023-11-25T15:11:41.581Z,61.24
2023-11-25T15:14:09.593Z,61.25
2023-11-25T15:16:38.700Z,61.26
2023-11-25T15:19:07.756Z,61.24
2023-11-25T15:21:35.630Z,61.16
2023-11-25T15:24:03.897Z,61.22
2023-11-25T15:26:31.754Z,61.34
2023-11-25T15:28:59.690Z,61.31
2023-11-25T15:31:27.732Z,61.40
2023-11-25T15:33:55.807Z,61.50
2023-11-25T15:36:23.712Z,61.44
2023-11-25T15:38:51.559Z,61.46
2023-11-25T15:41:19.458Z,61.62
2023-11-25T15:43:47.490Z,61.83
2023-11-25T15:46:15.554Z,62.04
2023-11-25T15:48:43.506Z,62.19
2023-11-25T15:51:11.527Z,62.27
2023-11-25T15:53:39.465Z,62.37
2023-11-25T15:56:07.779Z,62.50
2023-11-25T15:58:36.028Z,62.54
2023-11-25T16:01:04.049Z,62.66
2023-11-25T16:03:31.998Z,62.84
2023-11-25T16:06:00.048Z,62.92
2023-11-25T16:08:28.131Z,63.12
2023-11-25T16:10:56.062Z,63.20
2023-11-25T16:13:23.921Z,63.38
2023-11-25T16:15:51.931Z,63.28
2023-11-25T16:18:21.836Z,63.31
2023-11-25T16:20:50.924Z,63.61
2023-11-25T16:23:20.416Z,63.63
2023-11-25T16:25:48.264Z,63.68
2023-11-25T16:28:16.370Z,63.50
2023-11-25T16:30:44.392Z,63.84
2023-11-25T16:33:12.438Z,64.01
2023-11-25T16:35:41.643Z,63.87
2023-11-25T16:38:09.699Z,63.92
2023-11-25T16:40:37.742Z,63.99
2023-11-25T16:43:06.214Z,64.04
2023-11-25T16:45:34.415Z,63.90
2023-11-25T16:48:02.749Z,64.06
2023-11-25T16:50:30.775Z,63.92
2023-11-25T16:52:58.749Z,64.02
2023-11-25T16:55:26.979Z,63.89
2023-11-25T16:57:54.914Z,63.83
2023-11-25T17:00:22.845Z,63.72
2023-11-25T17:02:51.452Z,63.69
2023-11-25T17:05:19.719Z,63.76
2023-11-25T17:07:47.709Z,63.88
2023-11-25T17:10:16.549Z,63.84
2023-11-25T17:12:44.423Z,63.99
2023-11-25T17:15:12.308Z,63.82
2023-11-25T17:17:42.383Z,63.71
2023-11-25T17:20:11.994Z,63.62
2023-11-25T17:22:40.107Z,63.63
2023-11-25T17:25:11.547Z,63.60
2023-11-25T17:27:39.572Z,63.65
2023-11-25T17:30:07.922Z,63.62
2023-11-25T17:32:35.981Z,63.54
2023-11-25T17:35:05.268Z,63.56
2023-11-25T17:37:33.427Z,63.67
2023-11-25T17:40:02.278Z,63.76
2023-11-25T17:42:30.272Z,63.78
2023-11-25T17:44:58.189Z,63.80
2023-11-25T17:47:27.220Z,63.84
2023-11-25T17:49:55.234Z,63.83
2023-11-25T17:52:23.341Z,63.73
2023-11-25T17:54:51.367Z,63.84
2023-11-25T17:57:19.332Z,63.74
2023-11-25T17:59:47.370Z,63.81
2023-11-25T18:02:15.802Z,63.83
2023-11-25T18:04:43.894Z,63.82
2023-11-25T18:07:11.836Z,63.77
2023-11-25T18:09:39.803Z,63.79
2023-11-25T18:12:07.679Z,63.92
2023-11-25T18:14:35.575Z,63.90
2023-11-25T18:17:03.708Z,63.98
2023-11-25T18:19:31.748Z,63.84
2023-11-25T18:21:59.759Z,63.99
2023-11-25T18:24:27.742Z,64.12
2023-11-25T18:26:56.943Z,63.99
2023-11-25T18:29:24.845Z,64.07
2023-11-25T18:31:53.472Z,64.11
2023-11-25T18:34:21.432Z,64.12
2023-11-25T18:36:49.781Z,64.00
2023-11-25T18:39:17.664Z,64.14
2023-11-25T18:41:45.994Z,64.19
2023-11-25T18:44:13.985Z,64.20
2023-11-25T18:46:42.161Z,64.18
2023-11-25T18:49:11.971Z,64.21
2023-11-25T18:51:41.930Z,64.24
2023-11-25T18:54:10.032Z,64.40
2023-11-25T18:56:37.908Z,64.33
2023-11-25T18:59:07.799Z,64.35
2023-11-25T19:01:37.010Z,64.11
2023-11-25T19:04:05.283Z,64.19
2023-11-25T19:06:34.466Z,64.06
2023-11-25T19:09:02.415Z,63.99
2023-11-25T19:11:30.399Z,64.18
2023-11-25T19:13:58.463Z,64.33
2023-11-25T19:16:26.477Z,64.26
2023-11-25T19:18:54.337Z,64.35
2023-11-25T19:21:22.256Z,64.32
2023-11-25T19:23:50.152Z,64.40
2023-11-25T19:26:18.173Z,64.41
2023-11-25T19:28:46.122Z,64.45
2023-11-25T19:31:14.090Z,64.56
2023-11-25T19:33:44.597Z,64.58
2023-11-25T19:36:14.187Z,64.51
2023-11-25T19:38:42.027Z,64.63
2023-11-25T19:41:09.955Z,64.59
2023-11-25T19:43:37.936Z,64.55
2023-11-25T19:46:06.036Z,64.71
2023-11-25T19:48:37.148Z,64.78
2023-11-25T19:51:05.137Z,64.76
2023-11-25T19:53:49.447Z,64.83
2023-11-25T19:56:20.583Z,64.85
2023-11-25T19:58:49.080Z,64.71
2023-11-25T20:01:17.270Z,64.85
2023-11-25T20:03:45.263Z,64.94
2023-11-25T20:06:13.264Z,64.94
2023-11-25T20:08:42.412Z,64.92
2023-11-25T20:11:10.429Z,65.15
2023-11-25T20:13:38.439Z,65.22
2023-11-25T20:16:06.531Z,65.32
2023-11-25T20:18:34.535Z,65.50
2023-11-25T20:21:02.456Z,65.53
2023-11-25T20:23:30.434Z,65.62
2023-11-25T20:25:58.713Z,65.49
2023-11-25T20:28:26.663Z,65.44
2023-11-25T20:30:55.104Z,65.43
2023-11-25T20:33:23.016Z,65.45
2023-11-25T20:35:52.418Z,65.59
2023-11-25T20:38:20.334Z,65.58
2023-11-25T20:40:48.353Z,65.56
2023-11-25T20:43:16.639Z,65.66
2023-11-25T20:45:44.617Z,65.52
2023-11-25T20:48:12.647Z,65.46
2023-11-25T20:50:41.205Z,65.52
2023-11-25T20:53:09.424Z,65.42
2023-11-25T20:55:40.245Z,65.41
2023-11-25T20:58:09.222Z,65.46
2023-11-25T21:00:39.042Z,65.61
2023-11-25T21:03:07.021Z,65.67
2023-11-25T21:05:36.110Z,65.80
2023-11-25T21:08:04.343Z,65.94
2023-11-25T21:10:32.766Z,66.00
2023-11-25T21:13:00.631Z,65.96
2023-11-25T21:15:28.516Z,65.99
2023-11-25T21:17:56.684Z,66.14
2023-11-25T21:20:24.618Z,66.06
2023-11-25T21:22:53.020Z,66.17
2023-11-25T21:25:23.225Z,66.25
2023-11-25T21:27:54.616Z,66.35
2023-11-25T21:30:22.750Z,66.38
2023-11-25T21:32:51.261Z,66.62
2023-11-25T21:35:19.803Z,66.56
2023-11-25T21:37:47.922Z,66.52
2023-11-25T21:40:22.897Z,66.70
2023-11-25T21:42:52.258Z,66.69
2023-11-25T21:45:20.250Z,66.51
2023-11-25T21:47:48.615Z,66.54
2023-11-25T21:50:16.912Z,66.73
2023-11-25T21:52:45.556Z,66.52
2023-11-25T21:55:13.487Z,66.52
2023-11-25T21:57:41.388Z,66.52
2023-11-25T22:00:11.529Z,66.42
2023-11-25T22:02:42.543Z,66.49
2023-11-25T22:05:12.579Z,66.44
2023-11-25T22:07:40.793Z,66.55
2023-11-25T22:10:21.475Z,66.70
2023-11-25T22:12:57.212Z,66.72
2023-11-25T22:15:26.056Z,66.83
2023-11-25T22:17:54.486Z,66.80
2023-11-25T22:20:23.378Z,66.88
2023-11-25T22:22:51.917Z,66.82
2023-11-25T22:25:28.113Z,66.77
2023-11-25T22:27:56.518Z,67.04
2023-11-25T22:30:25.277Z,66.94
2023-11-25T22:32:53.538Z,67.07
2023-11-25T22:35:22.148Z,67.17
2023-11-25T22:37:50.290Z,67.23
2023-11-25T22:40:18.533Z,67.31
2023-11-25T22:42:46.620Z,67.34
2023-11-25T22:45:15.018Z,67.05
2023-11-25T22:47:43.263Z,67.08
2023-11-25T22:50:11.316Z,66.86
2023-11-25T22:52:39.556Z,66.88
2023-11-25T22:55:07.814Z,66.84
2023-11-25T22:57:36.723Z,66.75
2023-11-25T23:00:06.138Z,66.90
2023-11-25T23:02:34.807Z,66.82
2023-11-25T23:05:03.453Z,66.80
2023-11-25T23:07:31.378Z,66.63
2023-11-25T23:09:59.334Z,66.60
2023-11-25T23:12:30.612Z,66.64
2023-11-25T23:15:03.652Z,66.68
2023-11-25T23:17:33.070Z,66.80
2023-11-25T23:20:01.162Z,66.80
2023-11-25T23:22:29.066Z,66.84
2023-11-25T23:24:56.952Z,66.87
2023-11-25T23:27:24.903Z,67.04
2023-11-25T23:29:52.694Z,66.82
2023-11-25T23:32:20.848Z,67.06
2023-11-25T23:34:49.380Z,67.00
2023-11-25T23:37:17.404Z,66.91
2023-11-25T23:39:45.462Z,66.97
2023-11-25T23:42:13.782Z,67.09
2023-11-25T23:44:41.838Z,67.05
2023-11-25T23:47:09.813Z,67.17
2023-11-25T23:49:37.745Z,67.16
2023-11-25T23:52:07.239Z,67.13
2023-11-25T23:54:38.695Z,67.24
2023-11-25T23:57:06.581Z,67.08
2023-11-25T23:59:35.166Z,66.98
